sensor_id;sensor_type;location;lat;lon;timestamp;temperature;humidity
20141;DHT22;10231;47.702;9.826;2023-02-22T00:00:37;4.50;99.90
20141;DHT22;10231;47.702;9.826;2023-02-22T00:03:17;4.40;99.90
20141;DHT22;10231;47.702;9.826;2023-02-22T00:05:45;4.40;99.90
20141;DHT22;10231;47.702;9.826;2023-02-22T00:08:12;4.40;99.90
20141;DHT22;10231;47.702;9.826;2023-02-22T00:10:38;4.30;99.90
20141;DHT22;10231;47.702;9.826;2023-02-22T00:13:05;4.20;99.90
20141;DHT22;10231;47.702;9.826;2023-02-22T00:15:32;4.30;99.90
20141;DHT22;10231;47.702;9.826;2023-02-22T00:17:58;4.30;99.90
20141;DHT22;10231;47.702;9.826;2023-02-22T00:20:24;4.20;99.90
20141;DHT22;10231;47.702;9.826;2023-02-22T00:22:50;4.30;99.90
20141;DHT22;10231;47.702;9.826;2023-02-22T00:25:19;4.30;99.90
20141;DHT22;10231;47.702;9.826;2023-02-22T00:27:45;4.40;99.90
20141;DHT22;10231;47.702;9.826;2023-02-22T00:30:17;4.40;99.90
20141;DHT22;10231;47.702;9.826;2023-02-22T00:32:45;4.40;99.90
20141;DHT22;10231;47.702;9.826;2023-02-22T00:35:12;4.30;99.90
20141;DHT22;10231;47.702;9.826;2023-02-22T00:37:38;4.40;99.90
20141;DHT22;10231;47.702;9.826;2023-02-22T00:40:10;4.50;99.90
20141;DHT22;10231;47.702;9.826;2023-02-22T00:42:36;4.40;99.90
20141;DHT22;10231;47.702;9.826;2023-02-22T00:45:03;4.40;99.90
20141;DHT22;10231;47.702;9.826;2023-02-22T00:47:28;4.40;99.90
20141;DHT22;10231;47.702;9.826;2023-02-22T00:49:55;4.40;99.90
20141;DHT22;10231;47.702;9.826;2023-02-22T00:52:20;4.30;99.90
20141;DHT22;10231;47.702;9.826;2023-02-22T00:54:46;4.40;99.90
20141;DHT22;10231;47.702;9.826;2023-02-22T00:57:11;4.20;99.90
20141;DHT22;10231;47.702;9.826;2023-02-22T00:59:37;4.20;99.90
20141;DHT22;10231;47.702;9.826;2023-02-22T01:02:02;4.20;99.90
20141;DHT22;10231;47.702;9.826;2023-02-22T01:04:28;4.30;99.90
20141;DHT22;10231;47.702;9.826;2023-02-22T01:06:54;4.20;99.90
20141;DHT22;10231;47.702;9.826;2023-02-22T01:09:20;4.20;99.90
20141;DHT22;10231;47.702;9.826;2023-02-22T01:11:47;4.10;99.90
20141;DHT22;10231;47.702;9.826;2023-02-22T01:14:13;4.10;99.90
20141;DHT22;10231;47.702;9.826;2023-02-22T01:16:39;4.20;99.90
20141;DHT22;10231;47.702;9.826;2023-02-22T01:19:04;4.10;99.90
20141;DHT22;10231;47.702;9.826;2023-02-22T01:21:30;4.00;99.90
20141;DHT22;10231;47.702;9.826;2023-02-22T01:23:56;4.00;99.90
20141;DHT22;10231;47.702;9.826;2023-02-22T01:26:22;4.00;99.90
20141;DHT22;10231;47.702;9.826;2023-02-22T01:28:47;4.00;99.90
20141;DHT22;10231;47.702;9.826;2023-02-22T01:31:13;4.00;99.90
20141;DHT22;10231;47.702;9.826;2023-02-22T01:33:39;4.00;99.90
20141;DHT22;10231;47.702;9.826;2023-02-22T01:36:05;4.00;99.90
20141;DHT22;10231;47.702;9.826;2023-02-22T01:38:36;4.00;99.90
20141;DHT22;10231;47.702;9.826;2023-02-22T01:41:03;4.00;99.90
20141;DHT22;10231;47.702;9.826;2023-02-22T01:43:30;4.00;99.90
20141;DHT22;10231;47.702;9.826;2023-02-22T01:46:05;4.10;99.90
20141;DHT22;10231;47.702;9.826;2023-02-22T01:48:42;4.00;99.90
20141;DHT22;10231;47.702;9.826;2023-02-22T01:51:21;3.90;99.90
20141;DHT22;10231;47.702;9.826;2023-02-22T01:53:53;3.90;99.90
20141;DHT22;10231;47.702;9.826;2023-02-22T01:56:21;3.80;99.90
20141;DHT22;10231;47.702;9.826;2023-02-22T01:58:55;3.70;99.90
20141;DHT22;10231;47.702;9.826;2023-02-22T02:01:22;3.60;99.90
20141;DHT22;10231;47.702;9.826;2023-02-22T02:03:49;3.50;99.90
20141;DHT22;10231;47.702;9.826;2023-02-22T02:06:18;3.40;99.90
20141;DHT22;10231;47.702;9.826;2023-02-22T02:11:45;3.30;99.90
20141;DHT22;10231;47.702;9.826;2023-02-22T02:14:12;3.40;99.90
20141;DHT22;10231;47.702;9.826;2023-02-22T02:16:48;3.30;99.90
20141;DHT22;10231;47.702;9.826;2023-02-22T02:19:40;3.30;99.90
20141;DHT22;10231;47.702;9.826;2023-02-22T02:22:30;3.40;99.90
20141;DHT22;10231;47.702;9.826;2023-02-22T02:25:35;3.40;99.90
20141;DHT22;10231;47.702;9.826;2023-02-22T02:36:20;3.50;99.90
20141;DHT22;10231;47.702;9.826;2023-02-22T02:39:04;3.50;99.90
20141;DHT22;10231;47.702;9.826;2023-02-22T02:41:41;3.40;99.90
20141;DHT22;10231;47.702;9.826;2023-02-22T02:46:50;3.30;99.90
20141;DHT22;10231;47.702;9.826;2023-02-22T02:49:28;3.30;99.90
20141;DHT22;10231;47.702;9.826;2023-02-22T02:51:55;3.40;99.90
20141;DHT22;10231;47.702;9.826;2023-02-22T02:54:22;3.30;99.90
20141;DHT22;10231;47.702;9.826;2023-02-22T02:56:49;3.20;99.90
20141;DHT22;10231;47.702;9.826;2023-02-22T02:59:33;3.10;99.90
20141;DHT22;10231;47.702;9.826;2023-02-22T03:02:21;3.10;99.90
20141;DHT22;10231;47.702;9.826;2023-02-22T03:05:05;3.20;99.90
20141;DHT22;10231;47.702;9.826;2023-02-22T03:21:40;2.90;99.90
20141;DHT22;10231;47.702;9.826;2023-02-22T03:27:06;2.70;99.90
20141;DHT22;10231;47.702;9.826;2023-02-22T03:29:37;2.60;99.90
20141;DHT22;10231;47.702;9.826;2023-02-22T03:32:07;2.60;99.90
20141;DHT22;10231;47.702;9.826;2023-02-22T03:34:40;2.60;99.90
20141;DHT22;10231;47.702;9.826;2023-02-22T03:37:11;2.60;99.90
20141;DHT22;10231;47.702;9.826;2023-02-22T03:39:40;2.60;99.90
20141;DHT22;10231;47.702;9.826;2023-02-22T03:42:12;2.50;99.90
20141;DHT22;10231;47.702;9.826;2023-02-22T03:44:40;2.50;99.90
20141;DHT22;10231;47.702;9.826;2023-02-22T03:47:13;2.40;99.90
20141;DHT22;10231;47.702;9.826;2023-02-22T03:49:52;2.40;99.90
20141;DHT22;10231;47.702;9.826;2023-02-22T03:52:20;2.40;99.90
20141;DHT22;10231;47.702;9.826;2023-02-22T03:54:51;2.60;99.90
20141;DHT22;10231;47.702;9.826;2023-02-22T03:57:35;2.60;99.90
20141;DHT22;10231;47.702;9.826;2023-02-22T04:00:05;2.60;99.90
20141;DHT22;10231;47.702;9.826;2023-02-22T04:02:31;2.60;99.90
20141;DHT22;10231;47.702;9.826;2023-02-22T04:04:57;2.70;99.90
20141;DHT22;10231;47.702;9.826;2023-02-22T04:07:23;2.70;99.90
20141;DHT22;10231;47.702;9.826;2023-02-22T04:09:48;2.80;99.90
20141;DHT22;10231;47.702;9.826;2023-02-22T04:12:14;2.90;99.90
20141;DHT22;10231;47.702;9.826;2023-02-22T04:14:39;2.90;99.90
20141;DHT22;10231;47.702;9.826;2023-02-22T04:17:05;2.80;99.90
20141;DHT22;10231;47.702;9.826;2023-02-22T04:19:30;2.80;99.90
20141;DHT22;10231;47.702;9.826;2023-02-22T04:21:56;2.70;99.90
20141;DHT22;10231;47.702;9.826;2023-02-22T04:24:21;2.30;99.90
20141;DHT22;10231;47.702;9.826;2023-02-22T04:26:47;2.10;99.90
20141;DHT22;10231;47.702;9.826;2023-02-22T04:29:12;2.20;99.90
20141;DHT22;10231;47.702;9.826;2023-02-22T04:31:38;2.10;99.90
20141;DHT22;10231;47.702;9.826;2023-02-22T04:34:03;2.10;99.90
20141;DHT22;10231;47.702;9.826;2023-02-22T04:36:30;2.20;99.90
20141;DHT22;10231;47.702;9.826;2023-02-22T04:38:57;2.30;99.90
20141;DHT22;10231;47.702;9.826;2023-02-22T04:41:22;2.10;99.90
20141;DHT22;10231;47.702;9.826;2023-02-22T04:43:48;2.00;99.90
20141;DHT22;10231;47.702;9.826;2023-02-22T04:46:13;1.90;99.90
20141;DHT22;10231;47.702;9.826;2023-02-22T04:48:39;1.90;99.90
20141;DHT22;10231;47.702;9.826;2023-02-22T04:51:05;2.10;99.90
20141;DHT22;10231;47.702;9.826;2023-02-22T04:53:31;2.30;99.90
20141;DHT22;10231;47.702;9.826;2023-02-22T04:55:56;2.40;99.90
20141;DHT22;10231;47.702;9.826;2023-02-22T04:58:22;2.50;99.90
20141;DHT22;10231;47.702;9.826;2023-02-22T05:00:47;2.60;99.90
20141;DHT22;10231;47.702;9.826;2023-02-22T05:03:13;2.60;99.90
20141;DHT22;10231;47.702;9.826;2023-02-22T05:05:38;2.60;99.90
20141;DHT22;10231;47.702;9.826;2023-02-22T05:08:04;2.60;99.90
20141;DHT22;10231;47.702;9.826;2023-02-22T05:10:29;2.70;99.90
20141;DHT22;10231;47.702;9.826;2023-02-22T05:12:55;2.70;99.90
20141;DHT22;10231;47.702;9.826;2023-02-22T05:15:21;2.70;99.90
20141;DHT22;10231;47.702;9.826;2023-02-22T05:17:49;2.70;99.90
20141;DHT22;10231;47.702;9.826;2023-02-22T05:20:27;2.60;99.90
20141;DHT22;10231;47.702;9.826;2023-02-22T05:22:57;2.40;99.90
20141;DHT22;10231;47.702;9.826;2023-02-22T05:25:24;2.20;99.90
20141;DHT22;10231;47.702;9.826;2023-02-22T05:27:57;2.10;99.90
20141;DHT22;10231;47.702;9.826;2023-02-22T05:30:28;1.90;99.90
20141;DHT22;10231;47.702;9.826;2023-02-22T05:32:54;2.00;99.90
20141;DHT22;10231;47.702;9.826;2023-02-22T05:35:21;2.00;99.90
20141;DHT22;10231;47.702;9.826;2023-02-22T05:37:47;1.80;99.90
20141;DHT22;10231;47.702;9.826;2023-02-22T05:40:20;1.70;99.90
20141;DHT22;10231;47.702;9.826;2023-02-22T05:42:47;1.80;99.90
20141;DHT22;10231;47.702;9.826;2023-02-22T05:45:13;1.90;99.90
20141;DHT22;10231;47.702;9.826;2023-02-22T05:47:39;2.00;99.90
20141;DHT22;10231;47.702;9.826;2023-02-22T05:50:05;1.90;99.90
20141;DHT22;10231;47.702;9.826;2023-02-22T05:52:31;2.00;99.90
20141;DHT22;10231;47.702;9.826;2023-02-22T05:54:56;2.10;99.90
20141;DHT22;10231;47.702;9.826;2023-02-22T05:57:22;2.10;99.90
20141;DHT22;10231;47.702;9.826;2023-02-22T05:59:47;2.10;99.90
20141;DHT22;10231;47.702;9.826;2023-02-22T06:02:13;2.20;99.90
20141;DHT22;10231;47.702;9.826;2023-02-22T06:04:38;2.20;99.90
20141;DHT22;10231;47.702;9.826;2023-02-22T06:07:04;2.20;99.90
20141;DHT22;10231;47.702;9.826;2023-02-22T06:09:30;2.20;99.90
20141;DHT22;10231;47.702;9.826;2023-02-22T06:11:56;2.30;99.90
20141;DHT22;10231;47.702;9.826;2023-02-22T06:14:22;2.20;99.90
20141;DHT22;10231;47.702;9.826;2023-02-22T06:16:55;2.30;99.90
20141;DHT22;10231;47.702;9.826;2023-02-22T06:19:21;2.30;99.90
20141;DHT22;10231;47.702;9.826;2023-02-22T06:21:51;2.20;99.90
20141;DHT22;10231;47.702;9.826;2023-02-22T06:24:18;2.10;99.90
20141;DHT22;10231;47.702;9.826;2023-02-22T06:26:44;2.00;99.90
20141;DHT22;10231;47.702;9.826;2023-02-22T06:29:09;2.10;99.90
20141;DHT22;10231;47.702;9.826;2023-02-22T06:31:35;2.20;99.90
20141;DHT22;10231;47.702;9.826;2023-02-22T06:34:01;2.10;99.90
20141;DHT22;10231;47.702;9.826;2023-02-22T06:36:27;2.20;99.90
20141;DHT22;10231;47.702;9.826;2023-02-22T06:38:55;2.30;99.90
20141;DHT22;10231;47.702;9.826;2023-02-22T06:41:20;2.30;99.90
20141;DHT22;10231;47.702;9.826;2023-02-22T06:43:46;2.30;99.90
20141;DHT22;10231;47.702;9.826;2023-02-22T06:46:12;2.40;99.90
20141;DHT22;10231;47.702;9.826;2023-02-22T06:48:38;2.50;99.90
20141;DHT22;10231;47.702;9.826;2023-02-22T06:51:08;2.40;99.90
20141;DHT22;10231;47.702;9.826;2023-02-22T06:53:34;2.40;99.90
20141;DHT22;10231;47.702;9.826;2023-02-22T06:56:00;2.50;99.90
20141;DHT22;10231;47.702;9.826;2023-02-22T06:58:26;2.50;99.90
20141;DHT22;10231;47.702;9.826;2023-02-22T07:00:52;2.60;99.90
20141;DHT22;10231;47.702;9.826;2023-02-22T07:03:18;2.70;99.90
20141;DHT22;10231;47.702;9.826;2023-02-22T07:05:43;2.70;99.90
20141;DHT22;10231;47.702;9.826;2023-02-22T07:08:09;2.60;99.90
20141;DHT22;10231;47.702;9.826;2023-02-22T07:10:36;2.70;99.90
20141;DHT22;10231;47.702;9.826;2023-02-22T07:13:03;2.80;99.90
20141;DHT22;10231;47.702;9.826;2023-02-22T07:15:30;2.90;99.90
20141;DHT22;10231;47.702;9.826;2023-02-22T07:17:57;2.90;99.90
20141;DHT22;10231;47.702;9.826;2023-02-22T07:20:23;2.90;99.90
20141;DHT22;10231;47.702;9.826;2023-02-22T07:22:49;2.90;99.90
20141;DHT22;10231;47.702;9.826;2023-02-22T07:25:15;2.90;99.90
20141;DHT22;10231;47.702;9.826;2023-02-22T07:27:41;3.00;99.90
20141;DHT22;10231;47.702;9.826;2023-02-22T07:30:14;3.10;99.90
20141;DHT22;10231;47.702;9.826;2023-02-22T07:32:44;3.00;99.90
20141;DHT22;10231;47.702;9.826;2023-02-22T07:35:21;3.00;99.90
20141;DHT22;10231;47.702;9.826;2023-02-22T07:37:47;3.20;99.90
20141;DHT22;10231;47.702;9.826;2023-02-22T07:40:14;3.30;99.90
20141;DHT22;10231;47.702;9.826;2023-02-22T07:43:02;3.30;99.90
20141;DHT22;10231;47.702;9.826;2023-02-22T07:45:30;3.30;99.90
20141;DHT22;10231;47.702;9.826;2023-02-22T07:47:56;3.40;99.90
20141;DHT22;10231;47.702;9.826;2023-02-22T07:50:23;3.50;99.90
20141;DHT22;10231;47.702;9.826;2023-02-22T07:52:51;3.60;99.90
20141;DHT22;10231;47.702;9.826;2023-02-22T07:55:20;3.50;99.90
20141;DHT22;10231;47.702;9.826;2023-02-22T07:57:47;3.50;99.90
20141;DHT22;10231;47.702;9.826;2023-02-22T08:00:15;3.50;99.90
20141;DHT22;10231;47.702;9.826;2023-02-22T08:02:42;3.70;99.90
20141;DHT22;10231;47.702;9.826;2023-02-22T08:05:09;3.70;99.90
20141;DHT22;10231;47.702;9.826;2023-02-22T08:07:36;3.80;99.90
20141;DHT22;10231;47.702;9.826;2023-02-22T08:10:06;3.90;99.90
20141;DHT22;10231;47.702;9.826;2023-02-22T08:12:35;4.00;99.90
20141;DHT22;10231;47.702;9.826;2023-02-22T08:15:03;4.10;99.90
20141;DHT22;10231;47.702;9.826;2023-02-22T08:17:29;4.10;99.90
20141;DHT22;10231;47.702;9.826;2023-02-22T08:19:54;4.20;99.90
20141;DHT22;10231;47.702;9.826;2023-02-22T08:22:20;4.20;99.90
20141;DHT22;10231;47.702;9.826;2023-02-22T08:24:46;4.30;99.90
20141;DHT22;10231;47.702;9.826;2023-02-22T08:27:11;4.30;99.90
20141;DHT22;10231;47.702;9.826;2023-02-22T08:29:37;4.30;99.90
20141;DHT22;10231;47.702;9.826;2023-02-22T08:32:02;4.40;99.90
20141;DHT22;10231;47.702;9.826;2023-02-22T08:34:28;4.50;99.90
20141;DHT22;10231;47.702;9.826;2023-02-22T08:36:54;4.70;99.90
20141;DHT22;10231;47.702;9.826;2023-02-22T08:39:20;4.70;99.90
20141;DHT22;10231;47.702;9.826;2023-02-22T08:41:46;4.80;99.90
20141;DHT22;10231;47.702;9.826;2023-02-22T08:44:12;4.80;99.90
20141;DHT22;10231;47.702;9.826;2023-02-22T08:46:38;4.90;99.90
20141;DHT22;10231;47.702;9.826;2023-02-22T08:49:04;5.00;99.90
20141;DHT22;10231;47.702;9.826;2023-02-22T08:51:34;5.10;99.90
20141;DHT22;10231;47.702;9.826;2023-02-22T08:54:00;5.10;99.90
20141;DHT22;10231;47.702;9.826;2023-02-22T08:56:28;5.20;99.90
20141;DHT22;10231;47.702;9.826;2023-02-22T08:58:54;5.30;99.90
20141;DHT22;10231;47.702;9.826;2023-02-22T09:01:22;5.40;99.90
20141;DHT22;10231;47.702;9.826;2023-02-22T09:03:49;5.50;99.90
20141;DHT22;10231;47.702;9.826;2023-02-22T09:06:15;5.50;99.90
20141;DHT22;10231;47.702;9.826;2023-02-22T09:08:41;5.70;99.90
20141;DHT22;10231;47.702;9.826;2023-02-22T09:11:06;5.80;99.90
20141;DHT22;10231;47.702;9.826;2023-02-22T09:13:32;5.80;99.90
20141;DHT22;10231;47.702;9.826;2023-02-22T09:15:57;5.90;99.90
20141;DHT22;10231;47.702;9.826;2023-02-22T09:18:26;6.00;99.90
20141;DHT22;10231;47.702;9.826;2023-02-22T09:20:52;6.20;99.90
20141;DHT22;10231;47.702;9.826;2023-02-22T09:23:17;6.30;99.90
20141;DHT22;10231;47.702;9.826;2023-02-22T09:25:46;6.50;99.90
20141;DHT22;10231;47.702;9.826;2023-02-22T09:28:11;6.60;99.90
20141;DHT22;10231;47.702;9.826;2023-02-22T09:30:37;6.70;99.90
20141;DHT22;10231;47.702;9.826;2023-02-22T09:35:30;6.90;99.90
20141;DHT22;10231;47.702;9.826;2023-02-22T09:38:01;7.00;99.90
20141;DHT22;10231;47.702;9.826;2023-02-22T09:40:29;7.10;99.90
20141;DHT22;10231;47.702;9.826;2023-02-22T09:51:56;7.60;99.90
20141;DHT22;10231;47.702;9.826;2023-02-22T09:54:23;7.70;99.90
20141;DHT22;10231;47.702;9.826;2023-02-22T09:56:55;7.80;99.90
20141;DHT22;10231;47.702;9.826;2023-02-22T09:59:32;7.80;99.90
20141;DHT22;10231;47.702;9.826;2023-02-22T10:04:46;7.90;99.90
20141;DHT22;10231;47.702;9.826;2023-02-22T10:07:22;8.00;99.90
20141;DHT22;10231;47.702;9.826;2023-02-22T10:09:51;8.00;99.90
20141;DHT22;10231;47.702;9.826;2023-02-22T10:18:18;8.20;99.90
20141;DHT22;10231;47.702;9.826;2023-02-22T10:25:52;8.50;99.90
20141;DHT22;10231;47.702;9.826;2023-02-22T10:28:23;8.50;99.90
20141;DHT22;10231;47.702;9.826;2023-02-22T10:30:54;8.60;99.90
20141;DHT22;10231;47.702;9.826;2023-02-22T10:33:23;8.70;99.90
20141;DHT22;10231;47.702;9.826;2023-02-22T10:35:52;8.70;99.90
20141;DHT22;10231;47.702;9.826;2023-02-22T10:38:20;8.80;99.90
20141;DHT22;10231;47.702;9.826;2023-02-22T10:43:40;9.00;99.90
20141;DHT22;10231;47.702;9.826;2023-02-22T10:46:12;9.00;99.90
20141;DHT22;10231;47.702;9.826;2023-02-22T10:48:41;9.00;99.90
20141;DHT22;10231;47.702;9.826;2023-02-22T10:51:08;9.10;99.90
20141;DHT22;10231;47.702;9.826;2023-02-22T10:53:36;9.20;99.90
20141;DHT22;10231;47.702;9.826;2023-02-22T10:56:15;9.20;99.90
20141;DHT22;10231;47.702;9.826;2023-02-22T10:58:49;9.30;99.90
20141;DHT22;10231;47.702;9.826;2023-02-22T11:04:12;9.50;99.90
20141;DHT22;10231;47.702;9.826;2023-02-22T11:06:42;9.50;99.90
20141;DHT22;10231;47.702;9.826;2023-02-22T11:09:17;9.60;99.90
20141;DHT22;10231;47.702;9.826;2023-02-22T11:11:46;9.70;99.90
20141;DHT22;10231;47.702;9.826;2023-02-22T11:14:32;9.80;99.90
20141;DHT22;10231;47.702;9.826;2023-02-22T11:16:59;9.90;99.90
20141;DHT22;10231;47.702;9.826;2023-02-22T11:19:28;9.90;99.90
20141;DHT22;10231;47.702;9.826;2023-02-22T11:22:38;9.90;99.90
20141;DHT22;10231;47.702;9.826;2023-02-22T11:25:00;9.90;99.90
20141;DHT22;10231;47.702;9.826;2023-02-22T11:30:05;10.10;99.90
20141;DHT22;10231;47.702;9.826;2023-02-22T11:32:33;10.10;99.90
20141;DHT22;10231;47.702;9.826;2023-02-22T11:37:52;10.20;99.90
20141;DHT22;10231;47.702;9.826;2023-02-22T11:40:21;10.30;99.90
20141;DHT22;10231;47.702;9.826;2023-02-22T11:42:48;10.30;99.90
20141;DHT22;10231;47.702;9.826;2023-02-22T11:45:19;10.40;99.90
20141;DHT22;10231;47.702;9.826;2023-02-22T11:47:58;10.40;99.90
20141;DHT22;10231;47.702;9.826;2023-02-22T11:50:30;10.40;99.90
20141;DHT22;10231;47.702;9.826;2023-02-22T11:56:09;10.40;99.90
20141;DHT22;10231;47.702;9.826;2023-02-22T11:58:54;10.40;99.90
20141;DHT22;10231;47.702;9.826;2023-02-22T12:01:28;10.40;99.90
20141;DHT22;10231;47.702;9.826;2023-02-22T12:04:22;10.50;99.90
20141;DHT22;10231;47.702;9.826;2023-02-22T12:15:43;10.90;99.90
20141;DHT22;10231;47.702;9.826;2023-02-22T12:18:19;11.00;99.90
20141;DHT22;10231;47.702;9.826;2023-02-22T12:20:59;11.10;99.90
20141;DHT22;10231;47.702;9.826;2023-02-22T12:23:44;11.20;99.90
20141;DHT22;10231;47.702;9.826;2023-02-22T12:26:39;11.40;99.90
20141;DHT22;10231;47.702;9.826;2023-02-22T12:29:08;11.40;99.90
20141;DHT22;10231;47.702;9.826;2023-02-22T12:31:46;11.50;99.90
20141;DHT22;10231;47.702;9.826;2023-02-22T12:39:41;11.90;99.90
20141;DHT22;10231;47.702;9.826;2023-02-22T12:42:17;11.90;99.90
20141;DHT22;10231;47.702;9.826;2023-02-22T12:44:49;11.90;99.90
20141;DHT22;10231;47.702;9.826;2023-02-22T12:47:20;12.00;99.90
20141;DHT22;10231;47.702;9.826;2023-02-22T12:49:48;12.10;99.90
20141;DHT22;10231;47.702;9.826;2023-02-22T12:52:43;12.20;99.90
20141;DHT22;10231;47.702;9.826;2023-02-22T12:55:22;12.30;99.90
20141;DHT22;10231;47.702;9.826;2023-02-22T12:58:06;12.30;99.90
20141;DHT22;10231;47.702;9.826;2023-02-22T13:00:43;12.30;99.90
20141;DHT22;10231;47.702;9.826;2023-02-22T13:03:38;12.20;99.90
20141;DHT22;10231;47.702;9.826;2023-02-22T13:14:47;12.00;99.90
20141;DHT22;10231;47.702;9.826;2023-02-22T13:17:54;12.10;99.90
20141;DHT22;10231;47.702;9.826;2023-02-22T13:20:44;12.20;99.90
20141;DHT22;10231;47.702;9.826;2023-02-22T13:26:21;12.30;99.90
20141;DHT22;10231;47.702;9.826;2023-02-22T13:29:37;12.30;99.90
20141;DHT22;10231;47.702;9.826;2023-02-22T13:40:37;12.70;99.90
20141;DHT22;10231;47.702;9.826;2023-02-22T13:51:39;13.20;99.90
20141;DHT22;10231;47.702;9.826;2023-02-22T13:57:00;13.30;99.90
20141;DHT22;10231;47.702;9.826;2023-02-22T13:59:35;13.60;99.90
20141;DHT22;10231;47.702;9.826;2023-02-22T14:02:04;13.80;99.90
20141;DHT22;10231;47.702;9.826;2023-02-22T14:04:40;13.80;99.90
20141;DHT22;10231;47.702;9.826;2023-02-22T14:17:45;14.80;99.90
20141;DHT22;10231;47.702;9.826;2023-02-22T14:22:42;15.00;99.90
20141;DHT22;10231;47.702;9.826;2023-02-22T14:27:55;15.30;99.90
20141;DHT22;10231;47.702;9.826;2023-02-22T14:30:31;15.50;99.90
20141;DHT22;10231;47.702;9.826;2023-02-22T14:32:58;15.40;99.90
20141;DHT22;10231;47.702;9.826;2023-02-22T14:35:37;15.20;99.90
20141;DHT22;10231;47.702;9.826;2023-02-22T14:38:15;15.00;99.90
20141;DHT22;10231;47.702;9.826;2023-02-22T14:40:44;15.20;99.90
20141;DHT22;10231;47.702;9.826;2023-02-22T14:43:21;15.50;99.40
20141;DHT22;10231;47.702;9.826;2023-02-22T14:45:56;15.50;98.90
20141;DHT22;10231;47.702;9.826;2023-02-22T14:48:44;15.50;98.90
20141;DHT22;10231;47.702;9.826;2023-02-22T14:51:13;15.30;98.50
20141;DHT22;10231;47.702;9.826;2023-02-22T14:53:46;15.10;99.00
20141;DHT22;10231;47.702;9.826;2023-02-22T14:56:24;14.80;99.60
20141;DHT22;10231;47.702;9.826;2023-02-22T14:59:12;14.60;99.90
20141;DHT22;10231;47.702;9.826;2023-02-22T15:01:39;14.20;99.90
20141;DHT22;10231;47.702;9.826;2023-02-22T15:06:45;14.00;99.90
20141;DHT22;10231;47.702;9.826;2023-02-22T15:11:39;13.90;99.90
20141;DHT22;10231;47.702;9.826;2023-02-22T15:14:25;13.80;99.90
20141;DHT22;10231;47.702;9.826;2023-02-22T15:16:56;14.00;99.90
20141;DHT22;10231;47.702;9.826;2023-02-22T15:19:36;13.70;99.90
20141;DHT22;10231;47.702;9.826;2023-02-22T15:22:03;13.60;99.90
20141;DHT22;10231;47.702;9.826;2023-02-22T15:24:35;13.50;99.90
20141;DHT22;10231;47.702;9.826;2023-02-22T15:27:10;13.50;99.90
20141;DHT22;10231;47.702;9.826;2023-02-22T15:29:39;13.40;99.90
20141;DHT22;10231;47.702;9.826;2023-02-22T15:34:44;13.30;99.90
20141;DHT22;10231;47.702;9.826;2023-02-22T15:37:24;13.30;99.90
20141;DHT22;10231;47.702;9.826;2023-02-22T15:39:52;13.20;99.90
20141;DHT22;10231;47.702;9.826;2023-02-22T15:42:24;13.20;99.90
20141;DHT22;10231;47.702;9.826;2023-02-22T15:44:52;13.10;99.90
20141;DHT22;10231;47.702;9.826;2023-02-22T15:47:23;13.00;99.90
20141;DHT22;10231;47.702;9.826;2023-02-22T15:52:50;12.90;99.90
20141;DHT22;10231;47.702;9.826;2023-02-22T15:55:20;12.90;99.90
20141;DHT22;10231;47.702;9.826;2023-02-22T15:57:47;13.10;99.90
20141;DHT22;10231;47.702;9.826;2023-02-22T16:00:23;13.30;99.90
20141;DHT22;10231;47.702;9.826;2023-02-22T16:02:49;13.50;99.90
20141;DHT22;10231;47.702;9.826;2023-02-22T16:05:16;13.60;99.90
20141;DHT22;10231;47.702;9.826;2023-02-22T16:07:49;13.70;99.90
20141;DHT22;10231;47.702;9.826;2023-02-22T16:10:24;13.50;99.90
20141;DHT22;10231;47.702;9.826;2023-02-22T16:13:17;13.40;99.90
20141;DHT22;10231;47.702;9.826;2023-02-22T16:16:34;13.20;99.90
20141;DHT22;10231;47.702;9.826;2023-02-22T16:18:40;13.10;99.90
20141;DHT22;10231;47.702;9.826;2023-02-22T16:21:11;13.10;99.90
20141;DHT22;10231;47.702;9.826;2023-02-22T16:23:54;13.10;99.90
20141;DHT22;10231;47.702;9.826;2023-02-22T16:28:57;12.90;99.90
20141;DHT22;10231;47.702;9.826;2023-02-22T16:31:26;12.80;99.90
20141;DHT22;10231;47.702;9.826;2023-02-22T16:33:52;12.60;99.90
20141;DHT22;10231;47.702;9.826;2023-02-22T16:36:19;12.50;99.90
20141;DHT22;10231;47.702;9.826;2023-02-22T16:38:47;12.30;99.90
20141;DHT22;10231;47.702;9.826;2023-02-22T16:41:16;12.20;99.90
20141;DHT22;10231;47.702;9.826;2023-02-22T16:43:46;12.10;99.90
20141;DHT22;10231;47.702;9.826;2023-02-22T16:46:15;12.00;99.90
20141;DHT22;10231;47.702;9.826;2023-02-22T16:48:43;11.90;99.90
20141;DHT22;10231;47.702;9.826;2023-02-22T16:51:22;11.80;99.90
20141;DHT22;10231;47.702;9.826;2023-02-22T16:53:49;11.80;99.90
20141;DHT22;10231;47.702;9.826;2023-02-22T16:56:18;11.80;99.90
20141;DHT22;10231;47.702;9.826;2023-02-22T16:58:45;11.80;99.90
20141;DHT22;10231;47.702;9.826;2023-02-22T17:01:14;11.70;99.90
20141;DHT22;10231;47.702;9.826;2023-02-22T17:03:40;11.70;99.90
20141;DHT22;10231;47.702;9.826;2023-02-22T17:06:06;11.60;99.90
20141;DHT22;10231;47.702;9.826;2023-02-22T17:08:35;11.60;99.90
20141;DHT22;10231;47.702;9.826;2023-02-22T17:11:01;11.60;99.90
20141;DHT22;10231;47.702;9.826;2023-02-22T17:13:28;11.40;99.90
20141;DHT22;10231;47.702;9.826;2023-02-22T17:15:55;11.40;99.90
20141;DHT22;10231;47.702;9.826;2023-02-22T17:18:22;11.30;99.90
20141;DHT22;10231;47.702;9.826;2023-02-22T17:20:50;11.30;99.90
20141;DHT22;10231;47.702;9.826;2023-02-22T17:23:16;11.20;99.90
20141;DHT22;10231;47.702;9.826;2023-02-22T17:25:44;11.20;99.90
20141;DHT22;10231;47.702;9.826;2023-02-22T17:28:13;11.10;99.90
20141;DHT22;10231;47.702;9.826;2023-02-22T17:30:38;11.10;99.90
20141;DHT22;10231;47.702;9.826;2023-02-22T17:33:06;11.00;99.90
20141;DHT22;10231;47.702;9.826;2023-02-22T17:35:35;11.00;99.90
20141;DHT22;10231;47.702;9.826;2023-02-22T17:38:02;11.00;99.90
20141;DHT22;10231;47.702;9.826;2023-02-22T17:40:40;10.90;99.90
20141;DHT22;10231;47.702;9.826;2023-02-22T17:43:06;10.90;99.90
20141;DHT22;10231;47.702;9.826;2023-02-22T17:45:38;10.90;99.90
20141;DHT22;10231;47.702;9.826;2023-02-22T17:48:06;10.80;99.90
20141;DHT22;10231;47.702;9.826;2023-02-22T17:50:35;10.80;99.90
20141;DHT22;10231;47.702;9.826;2023-02-22T17:53:01;10.80;99.90
20141;DHT22;10231;47.702;9.826;2023-02-22T17:55:28;10.70;99.90
20141;DHT22;10231;47.702;9.826;2023-02-22T17:57:56;10.60;99.90
20141;DHT22;10231;47.702;9.826;2023-02-22T18:00:27;10.60;99.90
20141;DHT22;10231;47.702;9.826;2023-02-22T18:03:09;10.60;99.90
20141;DHT22;10231;47.702;9.826;2023-02-22T18:05:40;10.60;99.90
20141;DHT22;10231;47.702;9.826;2023-02-22T18:08:06;10.50;99.90
20141;DHT22;10231;47.702;9.826;2023-02-22T18:10:32;10.50;99.90
20141;DHT22;10231;47.702;9.826;2023-02-22T18:12:58;10.50;99.90
20141;DHT22;10231;47.702;9.826;2023-02-22T18:15:27;10.40;99.90
20141;DHT22;10231;47.702;9.826;2023-02-22T18:17:53;10.40;99.90
20141;DHT22;10231;47.702;9.826;2023-02-22T18:20:19;10.40;99.90
20141;DHT22;10231;47.702;9.826;2023-02-22T18:22:58;10.40;99.90